Time;durP1;ratioP1;P1;durP2;ratioP2;P2;SDS_P1;SDS_P2;PMS_P1;PMS_P2;Temp;Humidity;BMP_temperature;BMP_pressure;BME280_temperature;BME280_humidity;BME280_pressure;Samples;Min_cycle;Max_cycle;Signal;HPM_P1;HPM_P2
2023/07/21 00:02:02;;;;;;;6.80;4.60;;;;;;;17.62;58.36;100070.26;113229;1237;21953;-81
2023/07/21 00:04:31;;;;;;;6.20;4.30;;;;;;;17.66;58.38;100068.24;113659;1235;23568;-84
2023/07/21 00:07:02;;;;;;;12.00;5.10;;;;;;;17.70;58.29;100070.96;113199;1237;21944;-81
2023/07/21 00:09:38;;;;;;;7.50;4.90;;;;;;;17.71;58.11;100071.39;112732;1242;21938;-80
2023/07/21 00:12:10;;;;;;;;;;;;;;;17.70;57.97;100068.63;112363;1246;21942;-81
2023/07/21 00:14:52;;;;;;;6.80;4.20;;;;;;;17.60;58.33;100070.05;112204;1243;21953;-81
2023/07/21 00:17:21;;;;;;;5.20;3.90;;;;;;;17.63;58.24;100066.36;111830;1246;21971;-81
2023/07/21 00:19:54;;;;;;;5.70;4.20;;;;;;;17.62;58.12;100066.25;112227;1246;21954;-81
2023/07/21 00:22:28;;;;;;;10.00;4.00;;;;;;;17.63;58.16;100061.20;112223;1246;21962;-81
2023/07/21 00:25:00;;;;;;;10.10;4.40;;;;;;;17.66;58.24;100060.48;112168;1246;22883;-81
2023/07/21 00:27:34;;;;;;;6.00;4.00;;;;;;;17.67;58.23;100061.86;112427;1241;24323;-80
2023/07/21 00:30:07;;;;;;;8.90;3.70;;;;;;;17.68;58.34;100063.00;112281;1244;22973;-81
2023/07/21 00:32:39;;;;;;;6.80;4.20;;;;;;;17.68;58.28;100064.23;111944;1248;22055;-82
2023/07/21 00:35:14;;;;;;;5.70;3.30;;;;;;;17.67;58.14;100067.64;112063;1243;21977;-81
2023/07/21 00:37:49;;;;;;;6.30;3.70;;;;;;;17.64;58.19;100066.80;112266;1243;22030;-81
2023/07/21 00:40:27;;;;;;;8.60;3.60;;;;;;;17.57;58.35;100052.55;112656;1242;23108;-80
2023/07/21 00:43:06;;;;;;;4.60;3.20;;;;;;;17.62;58.37;100062.58;112187;1246;23017;-80
2023/07/21 00:45:52;;;;;;;4.50;3.50;;;;;;;17.59;58.31;100063.48;112129;1247;21961;-81
2023/07/21 00:48:25;;;;;;;4.70;3.20;;;;;;;17.56;58.36;100062.47;112634;1239;21968;-81
2023/07/21 00:50:56;;;;;;;6.60;3.80;;;;;;;17.52;58.33;100061.29;112954;1240;21969;-80
2023/07/21 00:53:27;;;;;;;6.50;3.70;;;;;;;17.50;58.56;100063.01;112487;1240;22026;-81
2023/07/21 00:56:11;;;;;;;6.00;3.80;;;;;;;17.48;58.56;100063.35;112687;1240;23714;-81
2023/07/21 00:58:43;;;;;;;4.60;3.50;;;;;;;17.43;58.68;100059.66;112241;1245;21976;-81
2023/07/21 01:01:24;;;;;;;8.70;3.90;;;;;;;17.39;58.70;100063.16;111831;1247;22470;-80
2023/07/21 01:03:53;;;;;;;8.40;4.30;;;;;;;17.31;58.82;100059.48;112170;1247;25050;-82
2023/07/21 01:06:29;;;;;;;8.00;3.70;;;;;;;17.26;59.10;100059.65;112137;1247;23726;-81
2023/07/21 01:09:02;;;;;;;6.60;4.00;;;;;;;17.22;59.20;100060.59;111845;1243;22806;-81
2023/07/21 01:11:32;;;;;;;10.10;4.10;;;;;;;17.18;59.39;100060.17;111561;1252;21972;-80
2023/07/21 01:14:16;;;;;;;5.90;4.10;;;;;;;17.12;59.47;100051.27;111316;1256;22073;-82
2023/07/21 01:16:50;;;;;;;11.90;3.80;;;;;;;17.11;59.63;100059.42;111295;1256;23716;-81
2023/07/21 01:19:31;;;;;;;5.80;3.70;;;;;;;17.06;59.90;100059.64;111424;1252;22451;-81
2023/07/21 01:22:18;;;;;;;7.90;3.60;;;;;;;17.02;59.96;100059.70;111815;1252;22315;-81
2023/07/21 01:24:50;;;;;;;6.00;3.30;;;;;;;16.97;60.06;100063.25;111809;1252;21985;-82
2023/07/21 01:27:27;;;;;;;6.90;3.90;;;;;;;16.93;60.15;100065.25;111838;1252;22379;-80
2023/07/21 01:29:58;;;;;;;5.80;3.70;;;;;;;16.89;60.31;100062.91;111718;1249;22574;-81
2023/07/21 01:32:28;;;;;;;4.70;3.90;;;;;;;16.85;60.36;100060.52;112227;1244;21999;-81
2023/07/21 01:35:11;;;;;;;6.80;3.90;;;;;;;16.80;60.64;100061.68;112990;1239;21949;-80
2023/07/21 01:37:59;;;;;;;4.50;3.10;;;;;;;16.78;60.72;100062.71;113188;1239;22399;-81
2023/07/21 01:40:33;;;;;;;9.70;4.00;;;;;;;16.78;60.73;100060.29;112450;1245;21980;-82
2023/07/21 01:43:07;;;;;;;5.50;3.70;;;;;;;16.75;61.01;100064.48;111827;1249;23732;-80
2023/07/21 01:45:37;;;;;;;6.30;3.80;;;;;;;16.77;61.08;100060.16;112077;1250;21976;-80
2023/07/21 01:48:10;;;;;;;5.50;3.70;;;;;;;16.77;61.04;100060.14;111843;1250;22309;-81
2023/07/21 01:50:42;;;;;;;;;;;;;;;16.79;61.16;100063.16;112566;1242;23729;-80
2023/07/21 01:53:28;;;;;;;6.50;3.40;;;;;;;16.71;61.36;100061.83;112739;1242;22271;-81
2023/07/21 01:56:12;;;;;;;7.30;4.00;;;;;;;16.70;61.34;100058.20;111967;1248;21955;-80
2023/07/21 01:58:49;;;;;;;7.20;3.70;;;;;;;16.70;61.16;100058.19;111835;1249;23022;-80
2023/07/21 02:01:21;;;;;;;10.50;4.60;;;;;;;16.68;61.21;100062.15;112176;1244;23038;-80
2023/07/21 02:03:59;;;;;;;5.00;3.60;;;;;;;16.66;61.26;100059.36;112270;1244;22437;-81
2023/07/21 02:06:32;;;;;;;5.50;3.70;;;;;;;16.56;61.32;100047.69;112361;1244;22022;-79
2023/07/21 02:09:10;;;;;;;7.90;3.70;;;;;;;16.58;61.29;100058.61;112534;1244;21973;-81
2023/07/21 02:11:42;;;;;;;7.80;3.70;;;;;;;16.55;61.41;100056.73;112286;1244;23616;-81
2023/07/21 02:14:28;;;;;;;8.20;3.60;;;;;;;16.50;61.31;100054.24;112475;1238;21936;-80
2023/07/21 02:17:03;;;;;;;6.40;4.10;;;;;;;16.47;61.52;100055.84;113075;1238;23606;-81
2023/07/21 02:19:33;;;;;;;5.70;4.20;;;;;;;16.44;61.62;100055.23;112584;1244;24961;-80
2023/07/21 02:22:10;;;;;;;7.10;3.70;;;;;;;16.41;61.77;100054.17;112543;1244;21971;-80
2023/07/21 02:24:47;;;;;;;10.40;3.90;;;;;;;16.36;61.83;100055.00;113314;1239;22925;-81
2023/07/21 02:27:18;;;;;;;6.60;4.60;;;;;;;16.36;61.77;100053.11;112988;1239;22743;-80
2023/07/21 02:29:52;;;;;;;5.80;3.50;;;;;;;16.29;61.91;100052.67;112311;1245;23016;-80
2023/07/21 02:32:23;;;;;;;9.20;3.70;;;;;;;16.30;62.02;100057.02;111835;1249;23713;-80
2023/07/21 02:34:52;;;;;;;5.70;3.50;;;;;;;16.25;62.32;100057.67;112121;1249;23034;-80
2023/07/21 02:37:24;;;;;;;4.40;3.30;;;;;;;16.23;62.37;100059.18;112036;1244;21933;-81
2023/07/21 02:39:57;;;;;;;6.80;3.90;;;;;;;16.19;62.37;100055.27;112337;1243;21950;-80
2023/07/21 02:42:43;;;;;;;5.30;4.10;;;;;;;16.13;62.61;100052.68;112495;1244;21942;-81
2023/07/21 02:45:19;;;;;;;4.80;3.50;;;;;;;16.09;62.54;100054.34;112266;1244;21948;-79
2023/07/21 02:47:48;;;;;;;6.90;3.40;;;;;;;16.05;62.51;100058.81;112945;1237;21928;-80
2023/07/21 02:50:23;;;;;;;5.20;3.60;;;;;;;16.01;62.77;100058.52;113408;1232;21935;-80
2023/07/21 02:53:00;;;;;;;7.30;3.50;;;;;;;15.98;62.72;100060.85;113804;1233;23768;-80
2023/07/21 02:55:37;;;;;;;4.30;3.80;;;;;;;15.94;63.00;100060.02;113466;1232;23606;-79
2023/07/21 02:58:10;;;;;;;8.70;3.60;;;;;;;15.93;63.07;100062.38;113939;1231;22145;-81
2023/07/21 03:00:48;;;;;;;6.00;4.30;;;;;;;15.91;63.17;100061.48;113836;1231;22033;-79
2023/07/21 03:03:25;;;;;;;6.70;5.30;;;;;;;15.90;63.46;100065.00;113174;1239;22698;-82
2023/07/21 03:06:07;;;;;;;7.70;5.10;;;;;;;15.90;63.63;100069.98;113017;1239;21968;-77
2023/07/21 03:08:37;;;;;;;6.10;5.30;;;;;;;15.89;63.71;100073.86;112224;1245;22050;-80
2023/07/21 03:11:11;;;;;;;8.40;4.30;;;;;;;15.90;63.65;100071.92;111837;1249;23091;-81
2023/07/21 03:13:55;;;;;;;8.70;6.00;;;;;;;15.85;63.76;100060.80;111514;1253;23636;-82
2023/07/21 03:16:29;;;;;;;6.50;4.30;;;;;;;15.87;63.72;100075.04;111510;1252;22641;-81
2023/07/21 03:19:00;;;;;;;8.10;4.70;;;;;;;15.86;63.68;100072.17;111244;1257;23632;-80
2023/07/21 03:21:31;;;;;;;8.30;5.30;;;;;;;15.84;63.82;100072.98;111132;1252;23601;-81
2023/07/21 03:24:06;;;;;;;8.90;4.60;;;;;;;15.82;63.81;100070.64;111490;1254;24349;-82
2023/07/21 03:26:35;;;;;;;7.40;5.30;;;;;;;15.80;63.93;100071.83;111477;1249;22115;-80
2023/07/21 03:29:09;;;;;;;7.70;5.00;;;;;;;15.79;63.98;100072.95;111474;1249;23588;-80
2023/07/21 03:31:39;;;;;;;9.30;5.30;;;;;;;15.77;64.03;100079.73;112057;1244;22947;-81
2023/07/21 03:34:23;;;;;;;;;;;;;;;15.74;64.09;100084.45;112038;1244;22961;-81
2023/07/21 03:36:52;;;;;;;10.10;5.20;;;;;;;15.66;64.59;100087.60;112446;1238;21948;-80
2023/07/21 03:39:26;;;;;;;9.20;5.50;;;;;;;15.68;64.61;100091.70;113167;1238;23677;-82
2023/07/21 03:41:59;;;;;;;8.70;5.00;;;;;;;15.71;64.61;100088.32;112976;1238;22722;-81
2023/07/21 03:44:34;;;;;;;7.20;5.10;;;;;;;15.76;64.69;100088.23;112973;1238;22705;-81
2023/07/21 03:47:04;;;;;;;7.40;5.00;;;;;;;15.80;64.62;100085.51;113186;1231;21942;-80
2023/07/21 03:49:37;;;;;;;9.50;5.70;;;;;;;15.84;64.72;100081.73;113477;1231;23677;-82
2023/07/21 03:53:31;;;;;;;7.70;5.30;;;;;;;15.91;64.84;100082.89;113419;1239;21959;-81
2023/07/21 03:56:06;;;;;;;7.10;5.50;;;;;;;15.93;64.91;100085.02;112242;1245;21980;-81
2023/07/21 03:58:42;;;;;;;7.10;5.40;;;;;;;15.99;64.83;100083.23;111998;1245;23734;-81
2023/07/21 04:01:19;;;;;;;7.00;5.90;;;;;;;16.07;64.83;100084.09;111682;1250;21958;-81
2023/07/21 04:04:22;;;;;;;9.10;5.70;;;;;;;16.13;64.61;100088.65;111671;1250;21956;-81
2023/07/21 04:06:56;;;;;;;7.10;4.80;;;;;;;16.19;64.59;100091.45;111874;1250;22339;-82
2023/07/21 04:09:41;;;;;;;13.10;5.70;;;;;;;16.25;64.48;100091.23;111959;1244;22020;-81
2023/07/21 04:12:10;;;;;;;7.50;5.40;;;;;;;16.31;64.45;100090.63;111639;1251;23603;-81
2023/07/21 04:14:42;;;;;;;8.20;5.20;;;;;;;16.39;64.39;100094.52;111552;1251;21969;-80
2023/07/21 04:17:17;;;;;;;7.40;4.80;;;;;;;16.47;64.36;100092.61;111251;1255;21997;-80
2023/07/21 04:19:47;;;;;;;12.00;6.20;;;;;;;16.56;64.25;100090.73;111480;1249;23712;-79
2023/07/21 04:22:22;;;;;;;7.30;5.40;;;;;;;16.66;64.09;100091.33;111902;1249;21946;-80
2023/07/21 04:24:57;;;;;;;7.20;4.60;;;;;;;16.75;63.90;100092.80;111962;1249;23661;-80
2023/07/21 04:27:28;;;;;;;7.10;4.60;;;;;;;16.82;63.46;100094.83;111905;1249;23587;-80
2023/07/21 04:30:08;;;;;;;6.70;5.00;;;;;;;16.89;63.03;100099.29;111672;1247;21941;-80
2023/07/21 04:32:43;;;;;;;5.50;4.80;;;;;;;16.96;62.68;100100.54;112028;1243;23654;-80
2023/07/21 04:35:21;;;;;;;6.00;4.90;;;;;;;17.05;62.31;100102.20;112305;1243;23648;-80
2023/07/21 04:37:54;;;;;;;5.10;4.50;;;;;;;17.18;61.97;100098.39;112357;1244;21958;-81
2023/07/21 04:40:31;;;;;;;6.20;5.10;;;;;;;17.29;61.37;100099.91;112560;1244;21946;-79
2023/07/21 04:43:08;;;;;;;10.20;4.90;;;;;;;17.41;60.92;100099.94;112390;1244;22978;-81
2023/07/21 04:45:42;;;;;;;5.80;5.30;;;;;;;17.53;60.49;100099.73;112281;1243;21979;-83
2023/07/21 04:48:17;;;;;;;5.00;4.60;;;;;;;17.71;60.36;100099.16;112559;1238;22709;-81
2023/07/21 04:51:05;;;;;;;8.60;4.70;;;;;;;17.90;59.93;100102.09;112556;1242;21958;-80
2023/07/21 04:53:37;;;;;;;8.40;5.40;;;;;;;18.09;59.44;100103.53;113030;1237;21960;-80
2023/07/21 04:56:13;;;;;;;9.20;4.90;;;;;;;18.32;59.08;100104.85;113018;1238;21970;-80
2023/07/21 04:58:54;;;;;;;7.90;5.00;;;;;;;18.58;58.57;100099.56;113119;1237;23051;-81
2023/07/21 05:01:26;;;;;;;7.10;5.20;;;;;;;18.83;57.90;100102.80;113302;1237;22047;-80
2023/07/21 05:04:03;;;;;;;9.00;4.60;;;;;;;19.17;57.34;100103.36;112726;1243;21983;-81
2023/07/21 05:06:44;;;;;;;5.80;4.60;;;;;;;19.57;56.73;100104.84;112171;1248;23769;-80
2023/07/21 05:09:14;;;;;;;6.90;4.50;;;;;;;19.99;55.64;100102.89;112139;1244;23335;-81
2023/07/21 05:11:55;;;;;;;7.30;4.20;;;;;;;20.34;54.25;100101.26;112311;1244;23693;-82
2023/07/21 05:14:57;;;;;;;13.40;4.80;;;;;;;20.79;52.74;100107.98;111791;1248;22468;-80
2023/07/21 05:18:02;;;;;;;13.10;4.40;;;;;;;21.14;52.42;100111.01;111926;1248;21961;-79
2023/07/21 05:20:54;;;;;;;4.30;3.50;;;;;;;21.53;51.22;100109.27;111893;1248;23077;-82
2023/07/21 05:23:53;;;;;;;8.30;3.70;;;;;;;21.97;50.02;100112.82;111953;1243;23575;-80
2023/07/21 05:26:23;;;;;;;8.30;4.30;;;;;;;22.36;49.73;100115.36;112536;1243;23011;-80
2023/07/21 05:28:54;;;;;;;11.80;3.60;;;;;;;22.84;48.59;100114.73;112500;1243;21959;-80
2023/07/21 05:31:36;;;;;;;7.50;3.80;;;;;;;23.27;47.02;100113.73;112365;1243;22011;-79
2023/07/21 05:34:23;;;;;;;6.70;3.60;;;;;;;23.54;45.61;100114.38;112736;1238;21933;-80
2023/07/21 05:36:55;;;;;;;8.10;3.90;;;;;;;23.81;44.93;100112.16;112532;1238;22441;-81
2023/07/21 05:39:39;;;;;;;9.10;4.00;;;;;;;24.10;44.56;100105.01;113347;1238;23587;-80
2023/07/21 05:42:11;;;;;;;8.90;3.60;;;;;;;24.39;43.16;100106.27;113255;1232;21908;-80
2023/07/21 05:44:47;;;;;;;7.90;3.60;;;;;;;24.63;42.94;100106.75;113847;1231;21943;-81
2023/07/21 05:47:30;;;;;;;9.70;4.10;;;;;;;24.87;42.21;100105.52;113718;1223;23005;-81
2023/07/21 05:50:02;;;;;;;8.30;3.90;;;;;;;25.08;41.87;100104.44;113229;1236;21960;-79
2023/07/21 05:52:49;;;;;;;9.50;4.20;;;;;;;25.43;41.47;100102.70;113202;1236;21958;-80
2023/07/21 05:55:50;;;;;;;8.30;3.80;;;;;;;25.88;40.28;100099.60;113347;1236;23603;-79
2023/07/21 05:58:38;;;;;;;9.70;3.10;;;;;;;26.15;39.15;100099.73;113265;1237;21958;-79
2023/07/21 06:01:10;;;;;;;13.70;3.70;;;;;;;26.17;38.25;100094.02;113398;1236;21940;-79
2023/07/21 06:03:50;;;;;;;8.50;2.70;;;;;;;26.24;38.34;100097.91;113481;1236;22433;-80
2023/07/21 06:06:24;;;;;;;7.90;3.00;;;;;;;26.29;37.70;100099.48;112726;1242;23642;-79
2023/07/21 06:09:23;;;;;;;8.60;3.40;;;;;;;26.23;36.59;100098.85;112565;1242;23740;-81
2023/07/21 06:12:10;;;;;;;5.30;2.20;;;;;;;26.19;37.11;100093.40;112587;1243;21968;-81
2023/07/21 06:15:08;;;;;;;6.30;3.20;;;;;;;26.34;37.21;100092.20;112272;1244;22823;-80
2023/07/21 06:18:02;;;;;;;8.20;2.00;;;;;;;26.61;36.41;100087.42;112456;1244;21960;-80
2023/07/21 06:20:35;;;;;;;5.60;3.00;;;;;;;26.81;36.07;100088.32;112426;1244;23619;-80
2023/07/21 06:23:08;;;;;;;6.20;2.10;;;;;;;26.96;35.49;100090.86;112670;1244;22470;-79
2023/07/21 06:25:49;;;;;;;7.70;2.40;;;;;;;27.02;34.29;100090.42;113097;1239;21952;-79
2023/07/21 06:28:35;;;;;;;8.40;2.40;;;;;;;27.04;34.55;100091.10;112974;1239;21947;-80
2023/07/21 06:31:05;;;;;;;5.30;2.60;;;;;;;27.21;34.20;100090.81;113138;1239;21963;-80
2023/07/21 06:33:51;;;;;;;6.20;2.20;;;;;;;27.57;33.93;100091.95;113434;1232;22690;-80
2023/07/21 06:36:58;;;;;;;12.80;2.10;;;;;;;27.95;32.76;100091.44;113633;1231;23705;-81
2023/07/21 06:39:36;;;;;;;4.50;2.30;;;;;;;28.22;32.25;100092.15;112968;1237;22660;-80
2023/07/21 06:42:20;;;;;;;11.80;1.80;;;;;;;28.38;31.55;100087.64;113217;1237;21958;-79
2023/07/21 06:45:11;;;;;;;4.10;2.20;;;;;;;28.56;31.30;100091.49;113458;1237;21973;-79
2023/07/21 06:48:11;;;;;;;10.00;3.30;;;;;;;28.81;30.85;100089.59;112816;1243;24894;-79
2023/07/21 06:51:02;;;;;;;4.70;1.60;;;;;;;28.88;29.75;100090.77;112546;1243;23076;-80
2023/07/21 06:53:35;;;;;;;8.80;2.00;;;;;;;28.86;30.20;100088.50;112770;1243;21970;-81
2023/07/21 06:56:05;;;;;;;3.40;1.70;;;;;;;29.17;30.22;100090.13;112484;1243;21924;-80
2023/07/21 06:58:43;;;;;;;28.90;25.70;;;;;;;29.46;29.76;100088.21;112736;1238;21968;-80
2023/07/21 07:01:16;;;;;;;11.40;3.40;;;;;;;29.66;29.16;100087.75;112961;1238;21925;-80
2023/07/21 07:03:58;;;;;;;11.00;2.10;;;;;;;29.71;28.10;100083.35;113072;1238;462456;-80
2023/07/21 07:06:34;;;;;;;11.00;1.80;;;;;;;29.65;27.88;100081.98;113637;1232;21962;-79
2023/07/21 07:09:08;;;;;;;5.40;1.40;;;;;;;29.80;28.06;100080.19;113721;1231;21946;-80
2023/07/21 07:11:37;;;;;;;9.70;1.40;;;;;;;30.00;28.10;100080.81;114008;1231;22056;-78
2023/07/21 07:14:18;;;;;;;13.20;1.40;;;;;;;30.10;27.74;100069.61;113376;1237;21960;-79
2023/07/21 07:16:56;;;;;;;3.50;1.10;;;;;;;30.14;27.25;100072.89;112998;1237;21948;-78
2023/07/21 07:19:28;;;;;;;2.70;1.00;;;;;;;30.13;27.50;100073.05;113240;1237;21955;-79
2023/07/21 07:22:22;;;;;;;13.50;1.90;;;;;;;30.12;27.27;100071.74;113483;1236;23056;-79
2023/07/21 07:24:51;;;;;;;11.40;1.80;;;;;;;30.02;26.80;100069.88;112936;1237;23646;-81
2023/07/21 07:27:25;;;;;;;12.50;1.40;;;;;;;29.98;26.67;100072.23;112850;1242;23616;-79
2023/07/21 07:29:57;;;;;;;9.60;1.10;;;;;;;29.89;26.31;100072.23;112445;1242;23024;-79
2023/07/21 07:32:30;;;;;;;8.40;1.30;;;;;;;29.75;26.30;100071.57;112161;1246;21970;-78
2023/07/21 07:34:59;;;;;;;3.50;1.10;;;;;;;29.85;26.83;100071.66;112266;1246;23658;-81
2023/07/21 07:37:34;;;;;;;6.10;0.90;;;;;;;30.10;26.33;100080.02;112052;1246;21956;-80
2023/07/21 07:40:06;;;;;;;7.60;1.20;;;;;;;30.33;26.11;100082.40;111986;1248;22226;-81
2023/07/21 07:42:40;;;;;;;1.90;0.90;;;;;;;30.56;26.23;100080.89;112022;1248;23069;-80
2023/07/21 07:45:13;;;;;;;2.80;0.90;;;;;;;30.87;26.06;100080.26;112475;1243;21994;-80
2023/07/21 07:47:50;;;;;;;11.10;1.40;;;;;;;31.06;25.28;100085.24;112697;1243;21968;-80
2023/07/21 07:50:20;;;;;;;4.30;1.00;;;;;;;31.10;25.18;100090.38;112642;1238;22927;-80
2023/07/21 07:52:49;;;;;;;5.20;1.00;;;;;;;31.07;24.85;100085.54;112745;1243;22280;-81
2023/07/21 07:55:19;;;;;;;3.10;0.80;;;;;;;31.12;25.25;100087.94;112661;1243;21951;-80
2023/07/21 07:57:55;;;;;;;7.10;1.50;;;;;;;31.29;24.79;100090.97;112845;1237;24331;-80
2023/07/21 08:00:28;;;;;;;4.70;0.90;;;;;;;31.34;24.39;100091.32;113604;1236;23581;-80
2023/07/21 08:03:09;;;;;;;3.00;0.80;;;;;;;31.38;24.62;100095.33;112692;1242;21966;-79
2023/07/21 08:05:49;;;;;;;5.30;3.20;;;;;;;31.56;24.48;100091.27;111871;1249;24008;-80
2023/07/21 08:08:21;;;;;;;3.30;1.20;;;;;;;31.81;24.43;100090.45;111644;1249;23783;-80
2023/07/21 08:10:53;;;;;;;1.80;0.60;;;;;;;32.00;24.35;100090.52;111962;1245;22196;-80
2023/07/21 08:13:25;;;;;;;16.90;10.20;;;;;;;32.17;23.44;100082.60;112216;1245;22958;-81
2023/07/21 08:15:57;;;;;;;2.40;1.40;;;;;;;32.17;23.21;100084.48;112163;1245;22327;-79
2023/07/21 08:18:30;;;;;;;2.50;1.10;;;;;;;32.16;23.29;100088.81;111994;1245;21961;-79
2023/07/21 08:21:22;;;;;;;1.60;0.70;;;;;;;32.00;22.75;100083.48;112242;1240;22101;-79
2023/07/21 08:23:55;;;;;;;3.90;0.90;;;;;;;31.68;23.29;100079.88;113053;1231;23688;-80
2023/07/21 08:26:26;;;;;;;3.90;0.80;;;;;;;31.47;23.38;100078.16;113884;1231;24275;-80
2023/07/21 08:28:59;;;;;;;3.90;1.90;;;;;;;31.07;23.16;100074.57;112617;1239;23044;-79
2023/07/21 08:31:36;;;;;;;2.50;0.90;;;;;;;30.76;24.04;100075.65;112794;1239;21975;-80
2023/07/21 08:34:10;;;;;;;2.20;1.00;;;;;;;30.65;23.66;100072.73;113156;1239;23014;-80
2023/07/21 08:36:41;;;;;;;4.50;1.10;;;;;;;30.58;24.21;100065.92;112817;1232;23129;-80
2023/07/21 08:39:26;;;;;;;2.60;1.00;;;;;;;30.81;24.34;100062.39;112785;1239;23006;-80
2023/07/21 08:41:56;;;;;;;1.80;0.80;;;;;;;30.97;23.47;100062.17;113071;1239;22361;-80
2023/07/21 08:44:35;;;;;;;2.90;1.10;;;;;;;30.76;23.29;100058.38;112765;1239;22439;-79
2023/07/21 08:47:13;;;;;;;2.00;0.70;;;;;;;30.72;23.68;100057.81;112335;1239;22997;-81
2023/07/21 08:49:45;;;;;;;12.60;1.40;;;;;;;30.89;23.29;100060.42;111800;1244;24329;-80
2023/07/21 08:52:34;;;;;;;4.00;0.80;;;;;;;31.06;23.08;100058.13;112008;1245;23715;-81
2023/07/21 08:55:37;;;;;;;;;;;;;;;;;;;;;
2023/07/21 08:58:28;;;;;;;3.80;0.60;;;;;;;31.05;22.67;100058.62;112095;1244;23616;-80
2023/07/21 09:01:20;;;;;;;3.90;0.80;;;;;;;30.92;23.09;100056.92;112208;1244;23694;-80
2023/07/21 09:04:08;;;;;;;2.10;0.60;;;;;;;31.05;22.51;100058.33;111827;1244;21956;-79
2023/07/21 09:07:08;;;;;;;2.10;0.70;;;;;;;31.24;22.26;100053.98;113056;1237;21954;-80
2023/07/21 09:09:55;;;;;;;5.00;1.30;;;;;;;31.22;21.86;100049.03;112805;1243;21956;-80
2023/07/21 09:12:42;;;;;;;5.10;1.40;;;;;;;31.30;22.59;100047.00;112395;1243;23810;-80
2023/07/21 09:15:29;;;;;;;2.10;0.70;;;;;;;31.71;22.44;100048.45;112034;1244;23690;-80
2023/07/21 09:18:04;;;;;;;5.40;1.50;;;;;;;31.91;21.90;100044.35;111562;1250;23697;-80
2023/07/21 09:20:49;;;;;;;2.30;0.90;;;;;;;32.17;21.61;100044.02;111606;1250;24411;-79
2023/07/21 09:23:37;;;;;;;2.00;0.70;;;;;;;32.24;21.31;100039.45;111145;1254;21982;-80
2023/07/21 09:26:58;;;;;;;3.80;0.90;;;;;;;32.16;21.22;100038.95;110673;1261;22125;-79
2023/07/21 09:30:03;;;;;;;2.20;0.70;;;;;;;31.94;21.21;100034.59;111149;1257;22552;-79
2023/07/21 09:32:59;;;;;;;3.40;1.20;;;;;;;31.94;21.55;100035.88;110777;1257;23051;-80
2023/07/21 09:35:49;;;;;;;;;;;;;;;;;;;;;
2023/07/21 09:38:40;;;;;;;6.00;1.00;;;;;;;32.33;20.71;100037.84;111165;1252;22656;-79
2023/07/21 09:41:24;;;;;;;2.10;1.60;;;;;;;32.38;20.61;100037.59;111322;1250;23743;-80
2023/07/21 09:44:31;;;;;;;2.30;0.70;;;;;;;32.39;20.48;100036.52;111761;1244;22082;-80
2023/07/21 09:47:22;;;;;;;3.30;0.90;;;;;;;32.38;20.42;100034.36;111685;1248;21976;-80
2023/07/21 09:50:02;;;;;;;1.90;0.80;;;;;;;32.25;19.85;100033.86;111927;1243;21961;-79
2023/07/21 09:52:42;;;;;;;3.30;0.60;;;;;;;31.67;19.66;100032.28;111916;1248;23691;-79
2023/07/21 09:55:19;;;;;;;4.50;1.10;;;;;;;31.05;20.34;100026.64;111753;1248;23015;-78
2023/07/21 09:57:55;;;;;;;5.50;1.00;;;;;;;30.59;20.92;100024.81;111794;1248;22984;-79
2023/07/21 10:00:33;;;;;;;3.00;0.60;;;;;;;30.22;21.44;100025.27;111543;1250;23674;-81
2023/07/21 10:03:07;;;;;;;5.00;0.80;;;;;;;30.08;22.34;100023.73;111471;1250;21966;-81
2023/07/21 10:05:49;;;;;;;1.50;0.60;;;;;;;30.18;22.30;100017.81;112135;1244;21964;-80
2023/07/21 10:08:30;;;;;;;4.00;1.10;;;;;;;30.01;22.09;100014.64;112474;1242;22980;-79
2023/07/21 10:11:18;;;;;;;3.30;0.70;;;;;;;29.76;22.63;100013.14;112638;1238;21980;-80
2023/07/21 10:13:54;;;;;;;1.40;0.80;;;;;;;29.63;23.06;100012.98;113223;1238;23706;-80
2023/07/21 10:16:29;;;;;;;3.50;1.00;;;;;;;29.69;23.34;100009.01;112534;1242;21933;-82
2023/07/21 10:19:15;;;;;;;2.70;2.40;;;;;;;29.66;22.90;100010.72;112656;1237;24260;-80
2023/07/21 10:22:09;;;;;;;3.20;2.80;;;;;;;29.49;22.92;100011.55;113105;1237;21931;-79
2023/07/21 10:25:02;;;;;;;8.00;3.90;;;;;;;29.41;23.08;100010.80;113383;1237;22069;-79
2023/07/21 10:27:41;;;;;;;3.50;1.00;;;;;;;29.40;22.72;100009.18;112696;1238;21930;-80
2023/07/21 10:30:29;;;;;;;3.00;0.80;;;;;;;29.20;22.91;100011.09;112988;1237;21939;-79
2023/07/21 10:33:59;;;;;;;4.30;0.90;;;;;;;29.10;23.15;100014.09;113078;1237;23678;-78
2023/07/21 10:37:02;;;;;;;2.90;0.90;;;;;;;29.15;23.41;100009.04;112500;1243;23275;-80
2023/07/21 10:40:28;;;;;;;2.10;1.10;;;;;;;29.36;23.18;100005.17;112728;1243;23667;-81
2023/07/21 10:43:12;;;;;;;2.00;1.00;;;;;;;29.32;22.98;100001.06;112456;1244;23137;-79
2023/07/21 10:46:28;;;;;;;2.80;1.10;;;;;;;29.28;23.28;100001.05;112386;1244;21968;-79
2023/07/21 10:49:23;;;;;;;7.50;1.30;;;;;;;29.42;23.45;99998.89;111802;1250;22445;-78
2023/07/21 10:52:14;;;;;;;3.60;1.20;;;;;;;29.55;23.26;99999.84;112078;1249;21979;-80
2023/07/21 10:55:45;;;;;;;4.60;0.80;;;;;;;29.46;23.12;99993.28;112773;1244;23047;-79
2023/07/21 10:58:16;;;;;;;4.80;0.80;;;;;;;29.47;23.26;99997.27;112335;1244;21945;-80
2023/07/21 11:01:09;;;;;;;4.60;1.90;;;;;;;29.42;22.96;99996.39;112272;1244;22043;-78
2023/07/21 11:05:17;;;;;;;4.50;0.90;;;;;;;29.23;22.92;99984.11;112572;1244;23482;-76
2023/07/21 11:08:30;;;;;;;2.20;0.70;;;;;;;29.07;23.26;99986.14;113184;1239;21977;-82
2023/07/21 11:11:14;;;;;;;1.70;0.80;;;;;;;28.97;23.36;99982.71;113572;1238;21940;-81
2023/07/21 11:14:04;;;;;;;2.20;1.10;;;;;;;29.01;23.45;99978.96;112876;1239;23813;-79
2023/07/21 11:17:14;;;;;;;39.70;4.30;;;;;;;29.13;23.51;99982.23;113224;1239;21983;-83
2023/07/21 11:20:12;;;;;;;2.00;1.10;;;;;;;29.17;23.38;99977.80;113680;1231;22364;-79
2023/07/21 11:23:04;;;;;;;2.80;0.80;;;;;;;29.06;23.19;99976.13;113730;1231;23743;-80
2023/07/21 11:25:37;;;;;;;7.40;1.20;;;;;;;28.92;23.47;99973.89;114053;1225;21895;-85
2023/07/21 11:28:11;;;;;;;2.20;0.90;;;;;;;28.73;23.33;99974.48;113701;1232;22209;-80
2023/07/21 11:31:03;;;;;;;7.60;1.20;;;;;;;28.52;23.47;99973.69;113145;1237;21982;-81
2023/07/21 11:33:49;;;;;;;6.00;1.30;;;;;;;28.45;24.22;99973.39;113147;1236;22534;-80
2023/07/21 11:36:23;;;;;;;1.90;0.80;;;;;;;28.42;24.42;99965.84;113509;1237;21950;-81
2023/07/21 11:39:04;;;;;;;4.20;1.00;;;;;;;28.55;23.92;99962.05;113308;1236;21960;-83
2023/07/21 11:41:46;;;;;;;2.20;1.20;;;;;;;28.67;23.45;99964.29;112944;1236;23757;-82
2023/07/21 11:44:37;;;;;;;4.40;0.80;;;;;;;28.68;23.30;99965.86;113051;1240;23006;-83
2023/07/21 11:47:16;;;;;;;2.10;0.80;;;;;;;28.69;23.34;99961.05;112084;1247;23024;-83
2023/07/21 11:49:54;;;;;;;3.20;0.70;;;;;;;28.75;23.31;99957.25;112612;1244;22493;-83
2023/07/21 11:52:26;;;;;;;;;;;;;;;28.81;22.84;99952.48;112543;1244;21964;-83
2023/07/21 11:55:00;;;;;;;4.20;1.30;;;;;;;28.70;22.74;99950.70;112465;1244;21973;-82
2023/07/21 11:57:51;;;;;;;1.70;0.80;;;;;;;28.64;22.74;99949.50;112652;1244;24614;-82
2023/07/21 12:00:27;;;;;;;3.00;0.50;;;;;;;28.59;23.04;99949.48;112059;1249;21959;-82
2023/07/21 12:03:09;;;;;;;1.60;0.80;;;;;;;28.50;22.68;99936.48;112096;1249;23703;-83
2023/07/21 12:05:56;;;;;;;1.90;1.00;;;;;;;28.40;22.82;99946.06;112409;1243;23685;-83
2023/07/21 12:08:48;;;;;;;3.70;0.90;;;;;;;28.39;23.36;99944.50;112713;1237;23041;-84
2023/07/21 12:11:48;;;;;;;1.70;0.90;;;;;;;28.50;23.45;99940.00;113217;1237;22007;-83
2023/07/21 12:14:32;;;;;;;6.20;0.90;;;;;;;28.58;23.24;99936.20;113398;1237;21949;-80
2023/07/21 12:17:04;;;;;;;2.70;1.00;;;;;;;28.65;23.16;99938.67;113206;1237;22416;-82
2023/07/21 12:19:37;;;;;;;1.90;0.90;;;;;;;28.74;23.04;99935.02;113767;1231;21939;-81
2023/07/21 12:22:13;;;;;;;3.00;2.00;;;;;;;28.80;22.93;99934.80;112810;1238;23082;-82
2023/07/21 12:25:01;;;;;;;1.20;0.80;;;;;;;28.82;22.69;99930.85;113088;1237;21951;-83